Terminal Aerodrome Forecast
Issued by NWS

Home | Current Version | Previous Version | Text Only | Print | Product List | Glossary Off
Versions: 1 2 3 4 5 6 7 8 9 10 11 12 13 14 15 16 17 18

000
FTUS43 KGRB 200520
TAFRHI
TAF
KRHI 200520Z 2006/2106 14006KT P6SM VCSH SCT040 BKN100
     FM201500 28007KT P6SM SCT035
     FM210100 VRB02KT P6SM SKC=

USA.gov is the U.S. government's official web portal to all federal, state and local government web resources and services.